createdAt,value
2023-04-27T00:02:55.181Z,99.90
2023-04-27T00:07:17.578Z,99.90
2023-04-27T00:11:39.537Z,99.90
2023-04-27T00:16:04.075Z,99.90
2023-04-27T00:20:26.139Z,99.90
2023-04-27T00:24:48.118Z,99.90
2023-04-27T00:29:10.067Z,99.90
2023-04-27T00:33:32.614Z,99.90
2023-04-27T00:37:55.618Z,99.90
2023-04-27T00:42:20.037Z,99.90
2023-04-27T00:46:46.600Z,99.90
2023-04-27T00:51:08.943Z,99.90
2023-04-27T00:55:31.142Z,99.90
2023-04-27T00:59:53.677Z,99.90
2023-04-27T01:04:20.179Z,99.90
2023-04-27T01:08:42.847Z,99.90
2023-04-27T01:13:04.966Z,99.90
2023-04-27T01:17:27.388Z,99.90
2023-04-27T01:21:49.767Z,99.90
2023-04-27T01:26:14.086Z,99.90
2023-04-27T01:30:36.813Z,99.90
2023-04-27T01:34:59.386Z,99.90
2023-04-27T01:39:22.008Z,99.90
2023-04-27T01:43:44.792Z,99.90
2023-04-27T01:48:07.275Z,99.90
2023-04-27T01:52:29.716Z,99.90
2023-04-27T01:56:52.292Z,99.90
2023-04-27T02:01:14.796Z,99.90
2023-04-27T02:05:37.632Z,99.90
2023-04-27T02:09:59.913Z,99.90
2023-04-27T02:14:21.894Z,99.90
2023-04-27T02:18:44.810Z,99.90
2023-04-27T02:23:07.070Z,99.90
2023-04-27T02:27:29.243Z,99.90
2023-04-27T02:31:53.114Z,99.90
2023-04-27T02:36:15.346Z,99.90
2023-04-27T02:40:37.684Z,99.90
2023-04-27T02:45:01.786Z,99.90
2023-04-27T02:49:24.120Z,99.90
2023-04-27T02:53:46.260Z,99.90
2023-04-27T02:58:08.369Z,99.90
2023-04-27T03:02:30.622Z,99.90
2023-04-27T03:06:52.626Z,99.90
2023-04-27T03:11:14.726Z,99.90
2023-04-27T03:15:36.499Z,99.90
2023-04-27T03:19:58.571Z,99.90
2023-04-27T03:24:21.998Z,99.90
2023-04-27T03:28:45.340Z,99.90
2023-04-27T03:33:07.635Z,99.90
2023-04-27T03:37:30.059Z,99.90
2023-04-27T03:41:52.338Z,99.90
2023-04-27T03:46:14.713Z,99.90
2023-04-27T03:50:37.136Z,99.90
2023-04-27T03:54:59.612Z,99.90
2023-04-27T03:59:21.923Z,99.90
2023-04-27T04:03:47.790Z,99.90
2023-04-27T04:08:10.047Z,99.90
2023-04-27T04:12:32.239Z,99.90
2023-04-27T04:16:55.532Z,99.90
2023-04-27T04:21:17.692Z,99.90
2023-04-27T04:25:40.550Z,99.90
2023-04-27T04:30:06.581Z,99.90
2023-04-27T04:34:30.407Z,99.90
2023-04-27T04:38:55.119Z,99.90
2023-04-27T04:43:17.552Z,99.90
2023-04-27T04:47:39.802Z,99.90
2023-04-27T04:52:02.443Z,99.90
2023-04-27T04:56:31.079Z,99.90
2023-04-27T05:00:57.019Z,98.40
2023-04-27T05:05:19.324Z,94.20
2023-04-27T05:09:41.560Z,91.60
2023-04-27T05:14:03.390Z,89.20
2023-04-27T05:18:25.863Z,83.00
2023-04-27T05:22:48.311Z,89.50
2023-04-27T05:27:12.445Z,93.90
2023-04-27T05:31:34.586Z,93.70
2023-04-27T05:35:56.501Z,92.30
2023-04-27T05:40:18.573Z,91.00
2023-04-27T05:44:40.860Z,90.50
2023-04-27T05:49:02.749Z,90.50
2023-04-27T05:53:24.392Z,90.90
2023-04-27T05:57:49.600Z,91.30
2023-04-27T06:02:16.781Z,91.50
2023-04-27T06:06:38.710Z,91.50
2023-04-27T06:11:00.782Z,92.00
2023-04-27T06:15:22.794Z,90.80
2023-04-27T06:19:44.524Z,79.70
2023-04-27T06:24:07.137Z,74.90
2023-04-27T06:28:29.100Z,76.40
2023-04-27T06:32:52.221Z,73.90
2023-04-27T06:37:15.690Z,68.80
2023-04-27T06:41:38.021Z,58.90
2023-04-27T06:46:00.798Z,52.00
2023-04-27T06:50:22.668Z,47.40
2023-04-27T06:54:45.359Z,45.30
2023-04-27T06:59:09.225Z,45.50
2023-04-27T07:03:34.703Z,47.00
2023-04-27T07:07:56.901Z,48.00
2023-04-27T07:12:19.105Z,49.40
2023-04-27T07:16:41.683Z,47.50
2023-04-27T07:21:04.221Z,44.40
2023-04-27T07:25:26.641Z,41.10
2023-04-27T07:29:48.625Z,38.90
2023-04-27T07:34:11.601Z,36.70
2023-04-27T07:38:33.602Z,35.30
2023-04-27T07:42:55.664Z,35.00
2023-04-27T07:47:20.522Z,35.10
2023-04-27T07:51:43.301Z,32.90
2023-04-27T07:56:07.021Z,31.70
2023-04-27T08:00:28.833Z,31.20
2023-04-27T08:04:51.065Z,29.60
2023-04-27T08:09:13.790Z,30.00
2023-04-27T08:13:36.426Z,29.10
2023-04-27T08:17:58.767Z,32.90
2023-04-27T08:22:20.816Z,35.30
2023-04-27T08:26:43.078Z,33.40
2023-04-27T08:31:05.296Z,30.20
2023-04-27T08:35:27.797Z,28.90
2023-04-27T08:39:49.959Z,30.20
2023-04-27T08:44:11.922Z,32.00
2023-04-27T08:48:33.815Z,32.20
2023-04-27T08:52:56.214Z,32.20
2023-04-27T08:57:17.873Z,31.40
2023-04-27T09:01:51.373Z,32.80
2023-04-27T09:06:15.204Z,33.90
2023-04-27T09:10:54.897Z,33.40
2023-04-27T09:15:16.794Z,33.80
2023-04-27T09:19:39.238Z,32.60
2023-04-27T09:24:13.038Z,29.70
2023-04-27T09:28:39.556Z,29.50
2023-04-27T09:33:02.826Z,32.30
2023-04-27T09:37:27.174Z,32.10
2023-04-27T09:41:49.534Z,31.30
2023-04-27T09:46:15.988Z,30.90
2023-04-27T09:50:39.802Z,31.90
2023-04-27T09:55:03.841Z,33.90
2023-04-27T09:59:44.332Z,32.00
2023-04-27T10:04:20.719Z,33.00
2023-04-27T10:08:43.393Z,33.90
2023-04-27T10:13:06.424Z,33.80
2023-04-27T10:17:34.353Z,34.70
2023-04-27T10:22:08.283Z,36.80
2023-04-27T10:26:30.313Z,35.30
2023-04-27T10:30:52.244Z,35.00
2023-04-27T10:35:14.947Z,37.00
2023-04-27T10:39:48.010Z,34.70
2023-04-27T10:44:20.177Z,31.60
2023-04-27T10:48:43.806Z,32.60
2023-04-27T10:53:07.982Z,33.40
2023-04-27T10:57:30.218Z,33.00
2023-04-27T11:01:52.312Z,31.70
2023-04-27T11:06:14.437Z,33.90
2023-04-27T11:10:39.647Z,36.60
2023-04-27T11:15:01.841Z,37.20
2023-04-27T11:19:23.816Z,36.40
2023-04-27T11:23:46.066Z,37.40
2023-04-27T11:28:22.011Z,37.20
2023-04-27T11:32:43.843Z,39.00
2023-04-27T11:41:35.915Z,40.40
2023-04-27T11:45:59.015Z,41.00
2023-04-27T11:50:25.999Z,40.90
2023-04-27T11:54:53.744Z,42.20
2023-04-27T11:59:22.395Z,42.50
2023-04-27T12:03:44.502Z,43.10
2023-04-27T12:08:06.896Z,43.40
2023-04-27T12:12:29.116Z,42.60
2023-04-27T12:16:51.520Z,42.80
2023-04-27T12:21:14.476Z,43.00
2023-04-27T12:25:36.994Z,42.30
2023-04-27T12:29:59.714Z,42.80
2023-04-27T12:34:21.876Z,43.90
2023-04-27T12:38:44.059Z,43.50
2023-04-27T12:43:07.773Z,44.20
2023-04-27T12:47:46.546Z,44.80
2023-04-27T12:52:12.296Z,45.60
2023-04-27T12:56:34.592Z,45.30
2023-04-27T13:00:58.004Z,45.90
2023-04-27T13:05:21.132Z,46.90
2023-04-27T13:09:43.074Z,47.00
2023-04-27T13:14:05.715Z,49.50
2023-04-27T13:18:27.831Z,49.80
2023-04-27T13:22:49.631Z,49.10
2023-04-27T13:27:11.812Z,48.80
2023-04-27T13:31:33.997Z,50.70
2023-04-27T13:35:56.391Z,50.00
2023-04-27T13:40:18.451Z,50.20
2023-04-27T13:44:40.292Z,51.80
2023-04-27T13:49:02.155Z,51.80
2023-04-27T13:53:27.606Z,51.70
2023-04-27T13:57:49.255Z,51.00
2023-04-27T14:02:11.318Z,51.70
2023-04-27T14:06:33.574Z,52.20
2023-04-27T14:10:55.803Z,51.00
2023-04-27T14:15:18.290Z,50.20
2023-04-27T14:19:41.115Z,50.90
2023-04-27T14:24:03.269Z,50.40
2023-04-27T14:28:25.233Z,52.50
2023-04-27T14:32:47.507Z,52.80
2023-04-27T14:37:09.655Z,53.60
2023-04-27T14:41:31.526Z,54.10
2023-04-27T14:45:59.361Z,55.30
2023-04-27T14:50:28.433Z,56.00
2023-04-27T14:54:50.498Z,55.30
2023-04-27T14:59:12.863Z,54.70
2023-04-27T15:03:35.405Z,53.40
2023-04-27T15:07:58.709Z,55.00
2023-04-27T15:12:21.118Z,55.00
2023-04-27T15:16:43.814Z,54.60
2023-04-27T15:21:07.019Z,54.60
2023-04-27T15:25:29.033Z,53.90
2023-04-27T15:29:53.275Z,55.10
2023-04-27T15:34:15.170Z,55.90
2023-04-27T15:38:37.315Z,56.50
2023-04-27T15:42:59.616Z,56.80
2023-04-27T15:47:21.888Z,58.10
2023-04-27T15:51:44.156Z,59.00
2023-04-27T15:56:07.034Z,58.30
2023-04-27T16:00:29.600Z,58.50
2023-04-27T16:04:55.385Z,59.10
2023-04-27T16:09:17.939Z,60.10
2023-04-27T16:13:40.784Z,60.30
2023-04-27T16:18:03.157Z,59.40
2023-04-27T16:22:25.532Z,60.80
2023-04-27T16:26:48.290Z,61.70
2023-04-27T16:31:10.859Z,61.30
2023-04-27T16:35:34.155Z,62.10
2023-04-27T16:39:59.313Z,61.60
2023-04-27T16:44:21.413Z,63.00
2023-04-27T16:48:43.447Z,62.90
2023-04-27T16:53:13.587Z,63.90
2023-04-27T16:57:36.031Z,63.90
2023-04-27T17:02:06.065Z,65.20
2023-04-27T17:06:34.974Z,67.20
2023-04-27T17:10:57.356Z,66.70
2023-04-27T17:15:20.912Z,67.80
2023-04-27T17:19:43.112Z,67.20
2023-04-27T17:24:06.213Z,69.80
2023-04-27T17:28:28.702Z,73.10
2023-04-27T17:32:52.030Z,73.60
2023-04-27T17:37:15.130Z,74.20
2023-04-27T17:41:37.317Z,75.10
2023-04-27T17:45:59.393Z,77.10
2023-04-27T17:50:21.540Z,78.00
2023-04-27T17:54:43.858Z,79.20
2023-04-27T17:59:07.905Z,80.00
2023-04-27T18:03:30.444Z,81.90
2023-04-27T18:07:53.540Z,83.30
2023-04-27T18:12:15.597Z,84.00
2023-04-27T18:16:37.585Z,85.80
2023-04-27T18:20:59.360Z,87.70
2023-04-27T18:25:21.753Z,90.30
2023-04-27T18:29:44.222Z,91.10
2023-04-27T18:34:06.476Z,92.30
2023-04-27T18:38:28.420Z,93.20
2023-04-27T18:42:50.790Z,94.30
2023-04-27T18:47:14.077Z,95.80
2023-04-27T18:51:35.986Z,96.70
2023-04-27T18:55:57.959Z,97.90
2023-04-27T19:00:20.314Z,98.80
2023-04-27T19:04:45.479Z,99.90
2023-04-27T19:09:15.112Z,99.90
2023-04-27T19:13:38.007Z,99.90
2023-04-27T19:18:07.120Z,99.90
2023-04-27T19:22:35.010Z,99.90
2023-04-27T19:26:56.809Z,99.90
2023-04-27T19:31:19.028Z,99.90
2023-04-27T19:35:41.126Z,99.90
2023-04-27T19:40:03.508Z,99.90
2023-04-27T19:44:26.814Z,99.90
2023-04-27T19:48:48.691Z,99.90
2023-04-27T19:53:11.393Z,99.90
2023-04-27T19:57:34.017Z,99.90
2023-04-27T20:01:56.459Z,99.90
2023-04-27T20:06:20.042Z,99.90
2023-04-27T20:10:42.286Z,99.90
2023-04-27T20:15:05.444Z,99.90
2023-04-27T20:19:27.624Z,99.90
2023-04-27T20:23:50.513Z,99.90
2023-04-27T20:28:12.316Z,99.90
2023-04-27T20:32:34.029Z,99.90
2023-04-27T20:37:05.893Z,99.90
2023-04-27T20:41:28.416Z,99.90
2023-04-27T20:45:50.194Z,99.90
2023-04-27T20:50:12.176Z,99.90
2023-04-27T20:54:34.045Z,99.90
2023-04-27T20:58:57.427Z,99.90
2023-04-27T21:03:20.005Z,99.90
2023-04-27T21:07:41.952Z,99.90
2023-04-27T21:12:04.973Z,99.90
2023-04-27T21:16:27.082Z,99.90
2023-04-27T21:20:48.895Z,99.90
2023-04-27T21:25:11.143Z,99.90
2023-04-27T21:29:36.156Z,99.90
2023-04-27T21:33:58.034Z,99.90
2023-04-27T21:38:20.386Z,99.90
2023-04-27T21:42:42.796Z,99.90
2023-04-27T21:47:04.797Z,99.90
2023-04-27T21:51:26.748Z,99.90
2023-04-27T21:55:49.511Z,99.90
2023-04-27T22:00:15.404Z,99.90
2023-04-27T22:04:40.443Z,99.90
2023-04-27T22:09:02.676Z,99.90
2023-04-27T22:13:24.932Z,99.90
2023-04-27T22:17:47.409Z,99.90
2023-04-27T22:22:10.401Z,99.90
2023-04-27T22:26:32.513Z,99.90
2023-04-27T22:30:55.596Z,99.90
2023-04-27T22:35:26.274Z,99.90
2023-04-27T22:39:50.073Z,99.90
2023-04-27T22:44:12.415Z,99.90
2023-04-27T22:48:34.675Z,99.90
2023-04-27T22:52:56.932Z,99.90
2023-04-27T22:57:19.076Z,99.90
2023-04-27T23:01:40.956Z,99.90
2023-04-27T23:06:02.979Z,99.90
2023-04-27T23:10:25.444Z,99.90
2023-04-27T23:14:47.435Z,99.90
2023-04-27T23:19:09.312Z,99.90
2023-04-27T23:23:32.406Z,99.90
2023-04-27T23:27:54.906Z,99.90
2023-04-27T23:32:17.669Z,99.90
2023-04-27T23:36:39.821Z,99.90
2023-04-27T23:41:02.416Z,99.90
2023-04-27T23:45:25.022Z,99.90
2023-04-27T23:49:47.228Z,99.90
2023-04-27T23:54:10.028Z,99.90
2023-04-27T23:58:32.158Z,99.90
